Fleetville, Pennsylvania
Current Conditions -  °F | °C
As of 7:54 PM on Saturday 25 Oct 2014 (Local Time) from KAVP Reporting Station
Clear Clear  
Wind Chill: 63°   Ceiling: Unl
Heat Index: 63°   Visibility: 10mi
Dew Point: 44°   Wind: 13mph
Humidity: 50%   Direction: 230°SW
Pressure: 29.61"   Gusts: NA
Location:  41.6°N, 75.71°W
Report Text: KAVP 252354Z 23011KT 10SM CLR 17/07 A2961 RMK AO2 SLP027 T01720067 10189 20167 56011
Loading
Personal Weather Stations






























Interactive Weather Map
Tropical Storm Tracking
New forecast layout! Learn more

10-Day Weather Forecast

Advertisements
Track Severe Weather on mobile